createdAt,value
2022-09-15T00:05:53.508Z,13
2022-09-15T00:15:53.928Z,13
2022-09-15T00:25:54.697Z,12.9
2022-09-15T00:35:55.502Z,12.9
2022-09-15T00:45:55.792Z,12.8
2022-09-15T00:55:56.276Z,12.7
2022-09-15T01:05:56.771Z,12.6
2022-09-15T01:15:57.546Z,12.3
2022-09-15T01:25:58.048Z,12.2
2022-09-15T01:35:58.175Z,12
2022-09-15T01:45:58.862Z,12
2022-09-15T01:55:59.884Z,12
2022-09-15T02:06:00.804Z,12
2022-09-15T02:16:01.094Z,12.1
2022-09-15T02:36:02.301Z,12.3
2022-09-15T02:46:03.225Z,12.3
2022-09-15T02:56:03.611Z,12.4
2022-09-15T03:06:04.030Z,12.5
2022-09-15T03:16:04.315Z,12.7
2022-09-15T03:26:04.630Z,12.9
2022-09-15T03:36:05.601Z,12.9
2022-09-15T03:46:05.943Z,13
2022-09-15T03:56:06.839Z,13
2022-09-15T04:06:07.660Z,13
2022-09-15T04:16:08.247Z,13
2022-09-15T04:26:08.761Z,13.1
2022-09-15T04:36:09.031Z,13.2
2022-09-15T04:46:10.116Z,13.2
2022-09-15T04:56:10.905Z,13.3
2022-09-15T05:06:11.519Z,13.3
2022-09-15T05:16:11.751Z,13.3
2022-09-15T05:26:11.942Z,13.4
2022-09-15T05:36:12.355Z,13.4
2022-09-15T05:46:12.821Z,13.6
2022-09-15T05:56:13.211Z,13.7
2022-09-15T06:06:13.355Z,13.9
2022-09-15T06:16:14.166Z,13.9
2022-09-15T06:26:15.202Z,14
2022-09-15T06:36:15.682Z,14
2022-09-15T06:56:17.060Z,14.2
2022-09-15T07:06:17.326Z,14.2
2022-09-15T07:16:18.118Z,14.4
2022-09-15T07:26:18.718Z,14.4
2022-09-15T07:36:19.364Z,14.6
2022-09-15T07:46:19.459Z,14.8
2022-09-15T07:56:19.871Z,14.9
2022-09-15T08:16:20.491Z,15.1
2022-09-15T08:26:21.096Z,15.3
2022-09-15T08:36:22.058Z,15.6
2022-09-15T08:46:22.189Z,15.8
2022-09-15T08:56:23.014Z,16
2022-09-15T09:06:23.870Z,16.2
2022-09-15T09:16:24.878Z,16.5
2022-09-15T09:26:25.771Z,16.9
2022-09-15T09:36:26.394Z,16.7
2022-09-15T09:46:27.529Z,17.1
2022-09-15T09:56:28.138Z,16.8
2022-09-15T10:06:28.658Z,16.6
2022-09-15T10:16:28.810Z,16.7
2022-09-15T10:26:29.186Z,16.5
2022-09-15T10:36:29.443Z,16.1
2022-09-15T10:46:29.918Z,14.9
2022-09-15T11:09:09.024Z,14.2
2022-09-15T11:16:39.579Z,14.7
2022-09-15T11:36:40.595Z,15.4
2022-09-15T11:46:41.657Z,16
2022-09-15T11:56:42.234Z,16.6
2022-09-15T12:06:45.692Z,17
2022-09-15T12:16:43.408Z,16.6
2022-09-15T12:56:46.113Z,17.5
2022-09-15T13:06:46.620Z,17.5
2022-09-15T13:26:48.184Z,17.5
2022-09-15T13:56:50.572Z,17.6
2022-09-15T14:06:50.681Z,17.7
2022-09-15T14:16:51.701Z,17.6
2022-09-15T14:26:52.280Z,17.9
2022-09-15T14:36:52.824Z,18.2
2022-09-15T14:46:53.433Z,17.8
2022-09-15T14:56:54.197Z,17.7
2022-09-15T15:06:54.677Z,17.7
2022-09-15T15:16:55.017Z,17.8
2022-09-15T15:26:55.400Z,17.7
2022-09-15T15:36:55.939Z,17.4
2022-09-15T15:46:56.512Z,16.1
2022-09-15T15:56:56.869Z,15.1
2022-09-15T16:06:56.982Z,14.9
2022-09-15T16:16:57.345Z,14.8
2022-09-15T16:26:57.433Z,15
2022-09-15T16:36:57.808Z,15
2022-09-15T16:46:58.383Z,15
2022-09-15T16:56:59.082Z,15.1
2022-09-15T17:06:59.419Z,15.3
2022-09-15T17:17:00.395Z,15.3
2022-09-15T17:27:01.360Z,15.3
2022-09-15T17:37:02.344Z,15.4
2022-09-15T17:47:03.341Z,15.2
2022-09-15T17:57:04.258Z,15.1
2022-09-15T18:07:04.920Z,15
2022-09-15T18:17:05.623Z,14.8
2022-09-15T18:47:07.727Z,14.6
2022-09-15T18:57:08.656Z,14.4
2022-09-15T19:07:09.446Z,14.2
2022-09-15T19:17:09.657Z,14.1
2022-09-15T19:27:10.557Z,14.1
2022-09-15T19:37:14.170Z,14.1
2022-09-15T19:47:11.567Z,14.2
2022-09-15T19:57:11.814Z,14.2
2022-09-15T20:07:12.724Z,14.2
2022-09-15T20:17:13.585Z,14.2
2022-09-15T20:37:14.938Z,13.9
2022-09-15T21:17:16.930Z,13.6
2022-09-15T21:27:17.597Z,13.4
2022-09-15T21:37:18.126Z,13.4
2022-09-15T21:57:18.964Z,13.4
2022-09-15T22:07:19.979Z,13.4
2022-09-15T22:17:20.675Z,13.5
2022-09-15T22:27:21.413Z,13.6
2022-09-15T22:37:21.824Z,13.6
2022-09-15T22:47:22.249Z,13.5
2022-09-15T22:57:23.106Z,13.4
2022-09-15T23:07:24.058Z,13.4
2022-09-15T23:17:24.156Z,13.3
2022-09-15T23:27:24.815Z,13.3
2022-09-15T23:37:24.960Z,13.1
2022-09-15T23:47:25.835Z,13.1
2022-09-15T23:57:26.269Z,13.2
